createdAt,value
2022-12-14T00:00:09.378Z,12.20
2022-12-14T00:02:37.605Z,12.73
2022-12-14T00:05:06.363Z,12.23
2022-12-14T00:07:34.471Z,12.35
2022-12-14T00:10:02.601Z,12.32
2022-12-14T00:12:32.525Z,12.13
2022-12-14T00:15:00.797Z,13.57
2022-12-14T00:17:29.680Z,12.13
2022-12-14T00:19:57.797Z,12.15
2022-12-14T00:22:25.830Z,12.75
2022-12-14T00:24:53.890Z,12.57
2022-12-14T00:27:22.037Z,12.85
2022-12-14T00:29:51.572Z,12.18
2022-12-14T00:32:19.572Z,11.65
2022-12-14T00:34:47.547Z,12.23
2022-12-14T00:37:15.720Z,11.52
2022-12-14T00:39:43.908Z,12.85
2022-12-14T00:42:11.988Z,12.18
2022-12-14T00:44:40.091Z,12.35
2022-12-14T00:47:09.812Z,12.55
2022-12-14T00:49:37.864Z,11.52
2022-12-14T00:52:05.987Z,12.88
2022-12-14T00:54:34.112Z,11.88
2022-12-14T00:57:02.309Z,12.38
2022-12-14T00:59:30.433Z,13.75
2022-12-14T01:01:58.546Z,12.80
2022-12-14T01:04:28.306Z,13.20
2022-12-14T01:06:56.718Z,13.75
2022-12-14T01:09:27.004Z,13.30
2022-12-14T01:11:55.220Z,12.10
2022-12-14T01:14:23.760Z,13.18
2022-12-14T01:16:52.303Z,12.95
2022-12-14T01:19:20.458Z,14.27
2022-12-14T01:21:50.272Z,13.43
2022-12-14T01:24:18.479Z,13.35
2022-12-14T01:26:46.645Z,12.80
2022-12-14T01:29:16.090Z,13.23
2022-12-14T01:31:44.353Z,14.48
2022-12-14T01:34:17.351Z,13.32
2022-12-14T01:36:45.734Z,13.93
2022-12-14T01:39:17.219Z,13.60
2022-12-14T01:41:47.368Z,13.87
2022-12-14T01:44:52.541Z,13.95
2022-12-14T01:47:26.523Z,13.07
2022-12-14T01:50:00.998Z,13.40
2022-12-14T01:52:35.480Z,14.68
2022-12-14T01:55:10.420Z,15.38
2022-12-14T01:57:41.407Z,13.57
2022-12-14T02:00:13.141Z,14.18
2022-12-14T02:02:45.714Z,12.68
2022-12-14T02:05:15.292Z,14.00
2022-12-14T02:07:49.031Z,12.85
2022-12-14T02:10:19.068Z,12.52
2022-12-14T02:12:50.830Z,13.02
2022-12-14T02:15:19.870Z,13.95
2022-12-14T02:17:49.250Z,12.48
2022-12-14T02:20:18.199Z,14.02
2022-12-14T02:23:19.109Z,12.68
2022-12-14T02:26:37.619Z,14.80
2022-12-14T02:29:43.930Z,13.30
2022-12-14T02:32:30.069Z,13.70
2022-12-14T02:35:04.412Z,13.50
2022-12-14T02:37:51.733Z,13.68
2022-12-14T02:40:27.250Z,12.95
2022-12-14T02:43:03.245Z,13.88
2022-12-14T02:45:38.474Z,13.50
2022-12-14T02:48:11.016Z,13.30
2022-12-14T02:50:48.100Z,13.27
2022-12-14T02:53:23.370Z,13.82
2022-12-14T02:55:53.279Z,13.50
2022-12-14T02:58:27.114Z,13.07
2022-12-14T03:00:56.975Z,14.38
2022-12-14T03:03:26.915Z,14.18
2022-12-14T03:05:59.783Z,14.27
2022-12-14T03:08:30.574Z,13.93
2022-12-14T03:11:00.999Z,14.27
2022-12-14T03:13:34.440Z,13.75
2022-12-14T03:16:07.195Z,14.35
2022-12-14T03:18:40.592Z,13.00
2022-12-14T03:21:12.375Z,15.20
2022-12-14T03:23:43.209Z,12.25
2022-12-14T03:26:14.980Z,14.23
2022-12-14T03:28:47.810Z,13.10
2022-12-14T03:31:21.402Z,13.43
2022-12-14T03:33:55.320Z,13.05
2022-12-14T03:36:34.013Z,13.27
2022-12-14T03:39:05.839Z,13.98
2022-12-14T03:41:42.568Z,14.50
2022-12-14T03:44:26.323Z,13.63
2022-12-14T03:47:02.521Z,13.55
2022-12-14T03:49:45.395Z,13.45
2022-12-14T03:52:24.282Z,14.00
2022-12-14T03:54:59.949Z,14.55
2022-12-14T03:57:46.825Z,14.25
2022-12-14T04:00:20.170Z,14.25
2022-12-14T04:02:54.361Z,13.55
2022-12-14T04:05:30.860Z,14.15
2022-12-14T04:08:07.456Z,14.43
2022-12-14T04:10:58.139Z,14.25
2022-12-14T04:13:50.538Z,14.63
2022-12-14T04:16:40.955Z,14.77
2022-12-14T04:19:15.840Z,15.35
2022-12-14T04:21:50.765Z,16.23
2022-12-14T04:24:48.468Z,14.50
2022-12-14T04:27:20.450Z,12.93
2022-12-14T04:29:56.355Z,13.32
2022-12-14T04:32:29.325Z,13.77
2022-12-14T04:35:03.009Z,14.27
2022-12-14T04:37:35.794Z,13.52
2022-12-14T04:40:09.700Z,15.23
2022-12-14T04:42:45.793Z,13.68
2022-12-14T04:45:18.822Z,15.20
2022-12-14T04:47:56.752Z,13.52
2022-12-14T04:50:30.003Z,13.95
2022-12-14T04:53:05.003Z,12.70
2022-12-14T04:55:37.942Z,14.23
2022-12-14T04:58:13.823Z,14.07
2022-12-14T05:00:56.703Z,14.57
2022-12-14T05:03:30.869Z,14.98
2022-12-14T05:06:08.272Z,14.15
2022-12-14T05:09:01.724Z,14.32
2022-12-14T05:11:53.685Z,14.98
2022-12-14T05:14:33.113Z,15.07
2022-12-14T05:17:08.398Z,12.77
2022-12-14T05:19:37.578Z,14.68
2022-12-14T05:22:08.203Z,13.88
2022-12-14T05:24:37.703Z,13.32
2022-12-14T05:27:05.938Z,14.93
2022-12-14T05:29:34.108Z,13.60
2022-12-14T05:32:03.070Z,12.80
2022-12-14T05:34:31.703Z,15.23
2022-12-14T05:36:59.779Z,15.75
2022-12-14T05:39:27.879Z,14.43
2022-12-14T05:41:57.397Z,14.30
2022-12-14T05:44:25.411Z,15.48
2022-12-14T05:46:54.028Z,14.63
2022-12-14T05:49:21.971Z,14.82
2022-12-14T05:51:50.041Z,14.48
2022-12-14T05:54:18.147Z,14.32
2022-12-14T05:56:46.160Z,15.82
2022-12-14T05:59:17.001Z,14.38
2022-12-14T06:01:49.346Z,15.38
2022-12-14T06:04:20.455Z,15.20
2022-12-14T06:06:48.726Z,15.27
2022-12-14T06:09:17.545Z,15.65
2022-12-14T06:11:46.900Z,15.70
2022-12-14T06:14:16.256Z,15.43
2022-12-14T06:16:46.026Z,15.95
2022-12-14T06:19:15.201Z,16.00
2022-12-14T06:21:44.785Z,16.00
2022-12-14T06:24:13.601Z,16.15
2022-12-14T06:26:42.154Z,16.25
2022-12-14T06:29:16.775Z,16.45
2022-12-14T06:31:44.829Z,17.13
2022-12-14T06:36:47.897Z,15.02
2022-12-14T06:39:17.623Z,16.05
2022-12-14T06:41:50.039Z,17.25
2022-12-14T06:46:47.885Z,16.45
2022-12-14T06:49:17.349Z,14.77
2022-12-14T06:51:46.282Z,15.93
2022-12-14T06:54:15.470Z,15.75
2022-12-14T06:56:44.606Z,15.55
2022-12-14T06:59:13.803Z,16.25
2022-12-14T07:01:43.220Z,15.60
2022-12-14T07:04:11.684Z,17.67
2022-12-14T07:06:41.071Z,15.32
2022-12-14T07:09:13.235Z,16.45
2022-12-14T07:11:41.987Z,15.30
2022-12-14T07:14:15.303Z,15.60
2022-12-14T07:16:48.374Z,16.35
2022-12-14T07:19:17.594Z,15.20
2022-12-14T07:21:45.787Z,15.93
2022-12-14T07:24:13.795Z,15.98
2022-12-14T07:26:41.876Z,16.55
2022-12-14T07:29:11.898Z,15.02
2022-12-14T07:31:40.004Z,15.63
2022-12-14T07:34:12.448Z,15.57
2022-12-14T07:39:09.051Z,16.95
2022-12-14T07:41:37.152Z,16.75
2022-12-14T07:44:05.352Z,17.17
2022-12-14T07:46:33.468Z,14.73
2022-12-14T07:49:02.339Z,17.65
2022-12-14T07:51:33.721Z,16.73
2022-12-14T07:54:02.677Z,16.50
2022-12-14T07:56:32.642Z,15.35
2022-12-14T07:59:02.206Z,14.35
2022-12-14T08:01:32.581Z,15.90
2022-12-14T08:04:02.599Z,16.13
2022-12-14T08:06:32.908Z,14.70
2022-12-14T08:09:01.594Z,18.25
2022-12-14T08:11:30.051Z,17.35
2022-12-14T08:13:59.969Z,17.10
2022-12-14T08:16:30.601Z,16.60
2022-12-14T08:18:59.668Z,17.52
2022-12-14T08:21:28.572Z,17.23
2022-12-14T08:23:59.006Z,18.25
2022-12-14T08:26:34.963Z,18.25
2022-12-14T08:29:03.916Z,16.85
2022-12-14T08:31:32.665Z,16.30
2022-12-14T08:34:06.839Z,16.30
2022-12-14T08:36:36.068Z,16.13
2022-12-14T08:39:07.267Z,17.00
2022-12-14T08:41:36.157Z,15.55
2022-12-14T08:44:05.511Z,17.73
2022-12-14T08:46:37.388Z,15.90
2022-12-14T08:49:05.851Z,15.90
2022-12-14T08:51:37.549Z,16.40
2022-12-14T08:54:07.454Z,17.52
2022-12-14T08:56:36.178Z,19.63
2022-12-14T08:59:04.664Z,17.05
2022-12-14T09:01:34.605Z,17.52
2022-12-14T09:04:05.101Z,17.70
2022-12-14T09:06:35.734Z,17.08
2022-12-14T09:09:04.228Z,20.00
2022-12-14T09:11:34.347Z,19.10
2022-12-14T09:14:04.626Z,22.98
2022-12-14T09:16:33.373Z,25.10
2022-12-14T09:19:02.532Z,17.67
2022-12-14T09:21:31.814Z,19.13
2022-12-14T09:24:00.293Z,20.73
2022-12-14T09:26:29.989Z,18.92
2022-12-14T09:29:06.632Z,20.85
2022-12-14T09:31:35.137Z,23.80
2022-12-14T09:34:04.060Z,17.23
2022-12-14T09:36:32.533Z,18.50
2022-12-14T09:39:01.296Z,17.88
2022-12-14T09:41:39.785Z,16.25
2022-12-14T09:44:18.833Z,16.70
2022-12-14T09:46:56.340Z,16.52
2022-12-14T09:49:29.406Z,15.38
2022-12-14T09:52:00.446Z,17.70
2022-12-14T09:54:31.337Z,16.65
2022-12-14T09:57:02.689Z,16.67
2022-12-14T09:59:34.084Z,14.98
2022-12-14T10:02:30.956Z,15.68
2022-12-14T10:05:14.196Z,15.35
2022-12-14T10:07:51.288Z,15.15
2022-12-14T10:10:26.691Z,15.88
2022-12-14T10:13:04.014Z,15.70
2022-12-14T10:15:40.941Z,15.05
2022-12-14T10:18:57.568Z,16.63
2022-12-14T10:21:17.555Z,15.23
2022-12-14T10:23:52.013Z,17.10
2022-12-14T10:26:23.752Z,16.00
2022-12-14T10:29:01.225Z,17.08
2022-12-14T10:31:36.841Z,16.10
2022-12-14T10:34:18.853Z,21.50
2022-12-14T10:36:54.203Z,17.83
2022-12-14T10:39:41.070Z,21.27
2022-12-14T10:42:16.627Z,16.60
2022-12-14T10:44:59.959Z,37.58
2022-12-14T10:47:43.235Z,39.42
2022-12-14T10:50:20.450Z,19.70
2022-12-14T10:52:52.153Z,17.08
2022-12-14T10:55:24.713Z,17.23
2022-12-14T11:00:23.998Z,18.95
2022-12-14T11:02:56.598Z,17.43
2022-12-14T11:05:36.304Z,17.08
2022-12-14T11:08:06.621Z,19.00
2022-12-14T11:10:36.101Z,16.60
2022-12-14T11:13:06.131Z,19.85
2022-12-14T11:15:37.724Z,19.00
2022-12-14T11:18:25.038Z,17.80
2022-12-14T11:20:55.199Z,16.75
2022-12-14T11:23:27.013Z,17.85
2022-12-14T11:25:57.039Z,19.33
2022-12-14T11:28:35.938Z,19.15
2022-12-14T11:31:07.476Z,21.13
2022-12-14T11:33:40.689Z,20.77
2022-12-14T11:36:09.888Z,19.90
2022-12-14T11:38:38.179Z,19.23
2022-12-14T11:41:25.257Z,19.88
2022-12-14T11:44:24.621Z,19.48
2022-12-14T11:46:56.246Z,18.75
2022-12-14T11:49:30.661Z,19.48
2022-12-14T11:52:02.226Z,18.23
2022-12-14T11:54:30.867Z,17.90
2022-12-14T11:57:04.014Z,19.23
2022-12-14T11:59:39.966Z,18.88
2022-12-14T12:02:24.012Z,19.15
2022-12-14T12:04:57.982Z,20.75
2022-12-14T12:07:30.830Z,19.00
2022-12-14T12:10:04.384Z,18.95
2022-12-14T12:12:32.568Z,18.13
2022-12-14T12:15:00.761Z,19.55
2022-12-14T12:17:43.398Z,18.95
2022-12-14T12:23:07.815Z,17.30
2022-12-14T12:25:37.793Z,20.67
2022-12-14T12:28:14.013Z,19.73
2022-12-14T12:30:46.613Z,20.88
2022-12-14T12:33:33.441Z,24.48
2022-12-14T12:36:05.846Z,27.80
2022-12-14T12:38:50.154Z,37.67
2022-12-14T12:41:30.540Z,31.98
2022-12-14T12:44:05.661Z,23.45
2022-12-14T12:46:48.477Z,22.73
2022-12-14T12:49:27.156Z,21.80
2022-12-14T12:52:01.244Z,22.40
2022-12-14T12:54:39.763Z,24.02
2022-12-14T12:57:13.945Z,23.13
2022-12-14T12:59:50.643Z,24.00
2022-12-14T13:02:30.334Z,24.77
2022-12-14T13:05:29.128Z,22.58
2022-12-14T13:08:00.418Z,21.92
2022-12-14T13:10:35.229Z,21.90
2022-12-14T13:13:18.605Z,22.20
2022-12-14T13:15:55.690Z,21.48
2022-12-14T13:18:57.939Z,21.85
2022-12-14T13:21:33.973Z,22.08
2022-12-14T13:24:03.869Z,22.40
2022-12-14T13:27:06.389Z,23.17
2022-12-14T13:29:49.576Z,24.45
2022-12-14T13:32:36.813Z,24.52
2022-12-14T13:35:19.743Z,23.00
2022-12-14T13:38:08.793Z,23.27
2022-12-14T13:40:57.080Z,22.23
2022-12-14T13:43:48.477Z,22.65
2022-12-14T13:46:23.322Z,28.80
2022-12-14T13:48:57.828Z,22.25
2022-12-14T13:51:32.892Z,26.08
2022-12-14T13:54:04.843Z,22.88
2022-12-14T13:56:41.709Z,21.35
2022-12-14T13:59:28.452Z,26.95
2022-12-14T14:02:00.296Z,19.55
2022-12-14T14:04:30.862Z,20.35
2022-12-14T14:07:50.427Z,20.83
2022-12-14T14:10:32.334Z,19.17
2022-12-14T14:13:03.406Z,20.40
2022-12-14T14:15:51.934Z,18.50
2022-12-14T14:18:32.290Z,16.70
2022-12-14T14:21:32.289Z,16.83
2022-12-14T14:24:02.624Z,19.17
2022-12-14T14:26:33.669Z,18.27
2022-12-14T14:29:24.865Z,22.15
2022-12-14T14:31:58.194Z,20.58
2022-12-14T14:34:38.572Z,20.65
2022-12-14T14:37:27.474Z,22.35
2022-12-14T14:40:18.675Z,19.40
2022-12-14T14:42:55.033Z,19.70
2022-12-14T14:45:40.299Z,19.13
2022-12-14T14:48:27.803Z,23.52
2022-12-14T14:51:18.619Z,21.08
2022-12-14T14:53:46.706Z,19.90
2022-12-14T14:56:46.247Z,20.27
2022-12-14T14:59:40.290Z,20.02
2022-12-14T15:02:32.644Z,18.77
2022-12-14T15:05:33.359Z,19.08
2022-12-14T15:07:51.648Z,20.15
2022-12-14T15:10:29.617Z,21.13
2022-12-14T15:13:02.068Z,19.13
2022-12-14T15:18:16.613Z,18.85
2022-12-14T15:23:20.206Z,22.50
2022-12-14T15:25:57.518Z,20.63
2022-12-14T15:28:25.706Z,19.55
2022-12-14T15:30:55.231Z,19.83
2022-12-14T15:33:26.904Z,16.75
2022-12-14T15:36:04.116Z,17.98
2022-12-14T15:38:33.948Z,14.15
2022-12-14T15:41:06.222Z,14.25
2022-12-14T15:43:34.889Z,12.55
2022-12-14T15:46:03.372Z,12.65
2022-12-14T15:48:34.529Z,12.45
2022-12-14T15:51:06.403Z,10.70
2022-12-14T15:53:37.568Z,13.60
2022-12-14T15:56:19.623Z,12.80
2022-12-14T15:58:47.825Z,13.45
2022-12-14T16:01:22.663Z,10.73
2022-12-14T16:03:55.416Z,10.10
2022-12-14T16:06:28.453Z,10.18
2022-12-14T16:08:59.483Z,9.20
2022-12-14T16:11:34.131Z,6.03
2022-12-14T16:14:08.031Z,7.95
2022-12-14T16:16:36.322Z,8.32
2022-12-14T16:19:26.085Z,9.65
2022-12-14T16:22:16.899Z,9.45
2022-12-14T16:25:17.912Z,10.65
2022-12-14T16:27:50.084Z,8.48
2022-12-14T16:32:50.211Z,12.23
2022-12-14T16:35:21.364Z,21.40
2022-12-14T16:37:53.224Z,12.85
2022-12-14T16:40:29.109Z,13.77
2022-12-14T16:42:57.170Z,12.30
2022-12-14T16:46:00.884Z,12.82
2022-12-14T16:48:28.942Z,11.70
2022-12-14T16:52:05.019Z,11.55
2022-12-14T16:54:28.245Z,11.13
2022-12-14T16:56:59.889Z,10.30
2022-12-14T16:59:33.283Z,11.57
2022-12-14T17:02:01.462Z,13.05
2022-12-14T17:04:36.207Z,12.38
2022-12-14T17:07:04.840Z,11.55
2022-12-14T17:09:35.465Z,12.15
2022-12-14T17:12:12.307Z,13.40
2022-12-14T17:14:46.044Z,13.07
2022-12-14T17:17:20.671Z,12.35
2022-12-14T17:19:49.004Z,12.18
2022-12-14T17:22:19.746Z,11.93
2022-12-14T17:24:49.329Z,12.25
2022-12-14T17:27:18.776Z,12.90
2022-12-14T17:29:46.710Z,11.82
2022-12-14T17:32:17.147Z,11.90
2022-12-14T17:34:46.312Z,11.80
2022-12-14T17:37:16.956Z,12.50
2022-12-14T17:39:45.042Z,12.52
2022-12-14T17:42:17.839Z,11.10
2022-12-14T17:44:51.914Z,12.85
2022-12-14T17:47:22.372Z,14.75
2022-12-14T17:49:50.436Z,16.63
2022-12-14T17:52:20.472Z,19.33
2022-12-14T17:54:48.498Z,15.55
2022-12-14T17:57:20.179Z,17.02
2022-12-14T17:59:48.916Z,22.87
2022-12-14T18:02:27.366Z,22.88
2022-12-14T18:04:55.406Z,17.90
2022-12-14T18:07:23.442Z,21.40
2022-12-14T18:09:53.280Z,16.55
2022-12-14T18:12:24.332Z,25.17
2022-12-14T18:14:52.511Z,21.50
2022-12-14T18:17:20.542Z,22.40
2022-12-14T18:19:49.543Z,22.20
2022-12-14T18:22:18.029Z,23.42
2022-12-14T18:24:46.117Z,41.90
2022-12-14T18:27:17.079Z,23.75
2022-12-14T18:29:46.538Z,20.08
2022-12-14T18:32:15.384Z,18.25
2022-12-14T18:34:43.307Z,18.40
2022-12-14T18:37:11.697Z,19.17
2022-12-14T18:39:39.601Z,18.15
2022-12-14T18:42:07.654Z,18.65
2022-12-14T18:44:35.694Z,18.30
2022-12-14T18:47:20.731Z,17.90
2022-12-14T18:49:52.887Z,16.92
2022-12-14T18:52:20.890Z,18.10
2022-12-14T18:54:51.722Z,18.13
2022-12-14T18:57:19.873Z,15.45
2022-12-14T18:59:47.964Z,16.23
2022-12-14T19:02:17.413Z,17.42
2022-12-14T19:04:49.145Z,15.70
2022-12-14T19:07:17.187Z,16.53
2022-12-14T19:09:45.651Z,15.80
2022-12-14T19:12:13.694Z,15.68
2022-12-14T19:14:41.973Z,14.38
2022-12-14T19:17:10.072Z,15.63
2022-12-14T19:19:44.383Z,16.80
2022-12-14T19:22:13.172Z,16.60
2022-12-14T19:24:41.278Z,15.52
2022-12-14T19:27:09.349Z,17.92
2022-12-14T19:29:37.719Z,16.80
2022-12-14T19:32:06.195Z,15.32
2022-12-14T19:34:34.381Z,15.13
2022-12-14T19:37:03.771Z,15.45
2022-12-14T19:39:32.131Z,15.80
2022-12-14T19:42:00.594Z,14.65
2022-12-14T19:44:28.505Z,14.52
2022-12-14T19:46:56.827Z,15.02
2022-12-14T19:49:24.736Z,14.70
2022-12-14T19:51:52.711Z,20.00
2022-12-14T19:54:22.960Z,17.67
2022-12-14T19:56:51.978Z,16.42
2022-12-14T19:59:19.960Z,15.98
2022-12-14T20:01:48.872Z,23.25
2022-12-14T20:04:17.546Z,30.05
2022-12-14T20:06:45.721Z,25.73
2022-12-14T20:09:16.309Z,29.88
2022-12-14T20:11:46.444Z,26.52
2022-12-14T20:14:15.499Z,17.52
2022-12-14T20:16:43.602Z,19.98
2022-12-14T20:19:13.768Z,20.27
2022-12-14T20:21:41.764Z,19.65
2022-12-14T20:24:11.385Z,31.10
2022-12-14T20:26:39.580Z,19.08
2022-12-14T20:29:09.017Z,21.63
2022-12-14T20:31:37.843Z,18.80
2022-12-14T20:34:07.896Z,23.73
2022-12-14T20:36:36.270Z,19.83
2022-12-14T20:39:05.684Z,20.95
2022-12-14T20:41:34.881Z,17.75
2022-12-14T20:44:03.141Z,19.52
2022-12-14T20:46:34.226Z,16.90
2022-12-14T20:49:04.316Z,17.50
2022-12-14T20:51:34.167Z,20.33
2022-12-14T20:54:03.005Z,16.75
2022-12-14T20:56:31.176Z,16.50
2022-12-14T20:58:59.338Z,18.15
2022-12-14T21:01:27.579Z,26.00
2022-12-14T21:04:01.998Z,18.17
2022-12-14T21:06:30.278Z,19.42
2022-12-14T21:09:09.214Z,21.73
2022-12-14T21:11:57.510Z,22.85
2022-12-14T21:14:26.821Z,25.23
2022-12-14T21:16:55.112Z,22.75
2022-12-14T21:19:24.853Z,22.25
2022-12-14T21:21:55.754Z,17.70
2022-12-14T21:25:00.454Z,30.13
2022-12-14T21:27:16.724Z,26.23
2022-12-14T21:29:45.641Z,23.92
2022-12-14T21:32:16.486Z,22.50
2022-12-14T21:34:48.887Z,27.30
2022-12-14T21:37:17.180Z,31.48
2022-12-14T21:39:51.880Z,19.67
2022-12-14T21:42:20.543Z,20.08
2022-12-14T21:44:50.475Z,20.55
2022-12-14T21:47:20.017Z,19.08
2022-12-14T21:49:49.323Z,20.40
2022-12-14T21:52:19.257Z,26.60
2022-12-14T21:54:47.348Z,24.08
2022-12-14T21:57:34.298Z,18.15
2022-12-14T22:00:02.516Z,21.50
2022-12-14T22:02:30.955Z,26.33
2022-12-14T22:05:00.599Z,19.92
2022-12-14T22:07:32.542Z,16.17
2022-12-14T22:10:00.694Z,15.23
2022-12-14T22:12:28.706Z,15.33
2022-12-14T22:14:56.646Z,17.58
2022-12-14T22:17:24.695Z,21.13
2022-12-14T22:19:55.032Z,18.70
2022-12-14T22:22:24.572Z,18.98
2022-12-14T22:24:52.528Z,15.88
2022-12-14T22:27:21.274Z,16.92
2022-12-14T22:29:49.389Z,15.82
2022-12-14T22:32:17.955Z,13.88
2022-12-14T22:34:46.180Z,11.25
2022-12-14T22:37:16.544Z,11.18
2022-12-14T22:39:47.699Z,12.30
2022-12-14T22:42:16.385Z,11.00
2022-12-14T22:44:44.373Z,12.68
2022-12-14T22:47:12.395Z,10.85
2022-12-14T22:49:40.456Z,13.18
2022-12-14T22:52:08.310Z,13.30
2022-12-14T22:54:39.095Z,13.40
2022-12-14T22:57:11.738Z,13.38
2022-12-14T22:59:45.181Z,13.02
2022-12-14T23:02:13.540Z,13.68
2022-12-14T23:04:41.919Z,14.43
2022-12-14T23:07:10.357Z,13.25
2022-12-14T23:09:55.679Z,13.82
2022-12-14T23:12:42.555Z,12.73
2022-12-14T23:15:28.569Z,12.60
2022-12-14T23:18:14.131Z,14.38
2022-12-14T23:20:59.681Z,13.35
2022-12-14T23:23:44.923Z,14.50
2022-12-14T23:26:30.618Z,14.18
2022-12-14T23:29:17.442Z,14.25
2022-12-14T23:32:03.023Z,15.68
2022-12-14T23:34:48.456Z,14.30
2022-12-14T23:37:34.176Z,13.90
2022-12-14T23:40:19.600Z,13.95
2022-12-14T23:43:04.927Z,14.77
2022-12-14T23:45:51.871Z,14.00
2022-12-14T23:48:37.502Z,12.57
2022-12-14T23:51:23.256Z,13.85
2022-12-14T23:54:08.851Z,13.45
2022-12-14T23:56:54.628Z,14.45
2022-12-14T23:59:40.471Z,14.35
